• Join FlightAware (Why Join?)
  • Login
  • US Flag 
10:16PM EDT


 

Airport Tracker/Info


-or-


 

Live Flight TrackerFlight Track Log ✈ N45EJ ✈ 01-Oct-2013 ✈ KPIR - KPWK

Flight Track Log - Related Links

Times and Time Zones

All times are in EDT time to prevent confusion due to time zone crossing. See the N45EJ flight status page for this flight to view local times or setup timezone preferences in your user account.

Time Position Orientation Groundspeed Altitude Reporting Facility
EDT Latitude Longitude Course Direction KTS MPH feet Rate Location/Type
11:58AM 44.3967 -100.3053 103° East 175 201 2,800  Level Minneapolis Center
11:59AM 44.4369 -100.2714 31° Northeast 256 295 5,600 2,760 Climbing Minneapolis Center
12:00PM 44.4250 -100.1633 99° East 273 314 8,500 2,820 Climbing Minneapolis Center
12:01PM 44.4089 -100.0425 101° East 294 338 11,500 2,760 Climbing Minneapolis Center
12:02PM 44.3883 -99.9161 103° East 313 360 14,300 2,640 Climbing Minneapolis Center
12:03PM 44.2617 -99.3405 103° East  Level Estimated
12:03PM 44.3642 -99.7519 102° East 349 402 17,000  Level Minneapolis Center
12:04PM 44.2408 -99.1833 103° East  Level Estimated
12:04PM 44.3431 -99.6081 102° East 372 428 19,200  Level Minneapolis Center
12:06PM 44.3206 -99.4583 102° East 387 445 21,300 1,920 Climbing Minneapolis Center
12:07PM 44.2953 -99.3025 103° East 404 465 23,200 1,800 Climbing Minneapolis Center
12:08PM 44.2703 -99.1400 102° East 421 484 25,000 1,680 Climbing Minneapolis Center
12:09PM 44.2433 -98.9711 102° East 438 504 26,700 1,560 Climbing Minneapolis Center
12:10PM 44.2158 -98.7972 102° East 454 522 28,300 1,440 Climbing Minneapolis Center
12:11PM 44.1861 -98.6108 102° East 470 541 29,700 1,440 Climbing Minneapolis Center
12:12PM 44.1500 -98.3906 103° East 485 558 31,300 1,320 Climbing Minneapolis Center
12:13PM 44.1189 -98.2025 103° East 497 572 32,500 1,260 Climbing Minneapolis Center
12:14PM 44.0889 -98.0144 102° East 501 577 33,900 1,380 Climbing Minneapolis Center
12:15PM 44.0569 -97.8283 103° East 498 573 35,400 1,380 Climbing Minneapolis Center
12:16PM 44.0264 -97.6436 103° East 493 567 36,800 1,260 Climbing Minneapolis Center
12:17PM 43.9939 -97.4622 104° East 488 562 38,000 1,140 Climbing Minneapolis Center
12:18PM 43.9633 -97.2817 103° East 484 557 39,200 1,320 Climbing Minneapolis Center
12:19PM 43.9244 -97.0675 104° East 481 554 40,800 840 Climbing Minneapolis Center
12:20PM 43.8939 -96.8889 103° East 479 551 41,000 60 Climbing Minneapolis Center
12:21PM 43.8603 -96.7050 104° East 489 563 41,000  Level Minneapolis Center
12:22PM 43.8264 -96.5172 104° East 502 578 41,000  Level Minneapolis Center
12:23PM 43.7919 -96.3269 104° East 513 590 41,000  Level Minneapolis Center
12:24PM 43.7497 -96.0997 104° East 515 593 41,000  Level Minneapolis Center
12:25PM 43.7142 -95.9103 104° East 515 593 41,000  Level Minneapolis Center
12:26PM 43.6789 -95.7219 104° East 512 589 41,000  Level Minneapolis Center
12:27PM 43.6431 -95.5342 105° East 511 588 41,000  Level Minneapolis Center
12:28PM 43.6072 -95.3444 105° East 513 590 41,000  Level Minneapolis Center
12:29PM 43.5717 -95.1569 105° East 510 587 41,000  Level Minneapolis Center
12:30PM 43.5264 -94.9331 106° East 508 585 41,000  Level Minneapolis Center
12:31PM 43.4892 -94.7450 105° East 510 587 41,000  Level Minneapolis Center
12:32PM 43.4522 -94.5586 105° East 508 585 41,000  Level Minneapolis Center
12:33PM 43.4125 -94.3731 106° East 508 585 41,000  Level Minneapolis Center
12:34PM 43.3769 -94.1908 105° East 511 588 41,000 -240 Level Minneapolis Center
12:35PM 43.3386 -94.0067 106° East 509 586 40,600 -780 Descending Minneapolis Center
12:36PM 43.2925 -93.7831 106° East 509 586 39,500 -1,020 Descending Minneapolis Center
12:37PM 43.2531 -93.5994 106° East 509 586 38,500 -1,020 Descending Minneapolis Center
12:38PM 43.2150 -93.4158 106° East 507 583 37,500 -1,020 Descending Minneapolis Center
12:39PM 43.1758 -93.2336 106° East 504 580 36,500 -960 Descending Minneapolis Center
12:41PM 43.1358 -93.0508 107° East 506 582 35,600 -1,020 Descending Minneapolis Center
12:42PM 43.0889 -92.8325 106° East 503 579 34,400 -1,200 Descending Minneapolis Center
12:43PM 43.0486 -92.6525 107° East 502 578 33,200 -1,380 Descending Minneapolis Center
12:43PM 43.0231 -92.5408 107° East 506 582 32,200 -1,740 Descending Chicago Center
12:44PM 42.9814 -92.3525 107° East 518 596 30,400 -1,560 Descending Chicago Center
12:45PM 42.9386 -92.1628 107° East 526 605 29,000 -720 Descending Chicago Center
12:46PM 42.8964 -91.9733 107° East 525 604 29,000  Level Chicago Center
12:47PM 42.8542 -91.7867 107° East 521 600 29,000 -60 Level Chicago Center
12:48PM 42.8067 -91.5847 108° East 519 597 28,900 -540 Descending Chicago Center
12:49PM 42.7647 -91.3961 107° East 524 603 28,000 -1,080 Descending Chicago Center
12:50PM 42.7122 -91.1753 108° East 520 598 26,700 -1,260 Descending Chicago Center
12:51PM 42.6714 -91.0014 108° East 500 575 25,500 -1,320 Descending Chicago Center
12:52PM 42.6300 -90.8306 108° East 485 558 24,000 -1,500 Descending Chicago Center
12:54PM 42.5903 -90.6625 108° East 476 548 22,400 -1,500 Descending Chicago Center
12:55PM 42.5492 -90.4969 109° East 469 540 20,900 -1,620 Descending Chicago Center
12:56PM 42.5022 -90.3025 108° East 460 529 19,100 -1,620 Descending Chicago Center
12:57PM 42.4619 -90.1397 108° East 454 522 17,600 -1,680 Descending Chicago Center
12:58PM 42.4247 -89.9886 108° East 439 505 15,700 -2,160 Descending Chicago Center
12:59PM 42.3911 -89.8500 108° East 397 457 13,200 -2,700 Descending Chicago Center
01:00PM 42.3528 -89.6972 109° East 363 418 10,200 -1,560 Descending Chicago Center
01:01PM 42.3433 -89.5725 96° East 353 406 10,000 -300 Descending Chicago Center
01:02PM 42.3478 -89.4472 87° East 341 392 9,600 -660 Descending Chicago Center
01:03PM 42.3503 -89.3347 88° East 309 356 8,700 -780 Descending Chicago Center
01:04PM 42.3544 -89.2200 87° East 308 354 8,000 -360 Descending Chicago Center
01:05PM 42.3575 -89.1000 88° East 307 353 8,000  Level Chicago Center
01:06PM 42.3622 -88.9611 87° East 309 356 8,000  Level Chicago Center
01:07PM 42.3658 -88.8478 87° East 305 351 8,000  Level Chicago Center
01:08PM 42.3683 -88.7331 88° East 305 351 8,000 -720 Level Chicago Center
01:09PM 42.3717 -88.6247 88° East 299 344 6,500 -1,440 Descending Chicago Center
01:10PM 42.3733 -88.5278 89° East 283 326 5,000 -1,140 Descending Chicago Center
01:11PM 42.3419 -88.4197 111° Southeast 269 310 4,200 -900 Descending Chicago Center
01:12PM 42.3386 -88.3275 93° East 257 296 3,200 -600 Descending Chicago Center
01:13PM 42.3356 -88.2372 93° East 248 285 3,000 -120 Descending Chicago Center
01:14PM 42.3333 -88.1497 92° East 242 278 3,000  Level Chicago Center
01:15PM 42.3297 -88.0619 93° East 238 274 3,000  Level Chicago Center
01:16PM 42.2864 -87.9914 130° Southeast 225 259 3,000  Level Chicago Center
01:17PM 42.2444 -87.9719 161° South 192 221 3,000 -240 Level Chicago Center
01:18PM 42.2131 -87.9578 162° South 147 169 2,600 -540 Descending Chicago Center
01:19PM 42.1822 -87.9419 159° South 129 148 1,900 -720 Descending Chicago Center
01:23PM 42.1143 -87.9015 153° Southeast  Level Estimated